Time;durP1;ratioP1;P1;durP2;ratioP2;P2;SDS_P1;SDS_P2;PMS_P1;PMS_P2;Temp;Humidity;BMP_temperature;BMP_pressure;BME280_temperature;BME280_humidity;BME280_pressure;Samples;Min_cycle;Max_cycle;Signal;HPM_P1;HPM_P2
2023/07/13 00:00:38;;;;;;;6.65;1.80;;;;;;;;;;5031767;28;25072;-70
2023/07/13 00:03:04;;;;;;;13.75;1.98;;;;;;;;;;5027141;28;25070;-71
2023/07/13 00:05:30;;;;;;;10.57;2.33;;;;;;;;;;5020957;28;25079;-73
2023/07/13 00:07:56;;;;;;;3.75;1.65;;;;;;;;;;5025766;28;25072;-71
2023/07/13 00:10:22;;;;;;;8.95;1.70;;;;;;;;;;5028677;28;25133;-71
2023/07/13 00:12:48;;;;;;;5.57;2.13;;;;;;;;;;5020342;28;25115;-70
2023/07/13 00:15:16;;;;;;;7.97;2.10;;;;;;;;;;5020932;28;25057;-70
2023/07/13 00:17:44;;;;;;;6.07;1.50;;;;;;;;;;5014774;28;25108;-70
2023/07/13 00:20:10;;;;;;;4.65;1.77;;;;;;;;;;5012639;28;25074;-71
2023/07/13 00:22:36;;;;;;;11.27;2.22;;;;;;;;;;5026579;28;25056;-73
2023/07/13 00:25:03;;;;;;;7.75;1.63;;;;;;;;;;5016067;28;25125;-69
2023/07/13 00:27:31;;;;;;;6.50;2.13;;;;;;;;;;5012720;28;25056;-72
2023/07/13 00:29:57;;;;;;;9.68;1.88;;;;;;;;;;5021336;28;25052;-72
2023/07/13 00:32:25;;;;;;;8.27;1.77;;;;;;;;;;5015971;28;25058;-74
2023/07/13 00:34:51;;;;;;;6.97;2.40;;;;;;;;;;5019165;28;25150;-70
2023/07/13 00:37:17;;;;;;;6.78;1.80;;;;;;;;;;5011732;28;25061;-73
2023/07/13 00:39:43;;;;;;;9.82;2.17;;;;;;;;;;5014906;28;25074;-72
2023/07/13 00:42:09;;;;;;;8.73;2.42;;;;;;;;;;5013267;28;25069;-73
2023/07/13 00:44:35;;;;;;;8.10;2.08;;;;;;;;;;5015971;28;25078;-73
2023/07/13 00:47:01;;;;;;;10.55;2.17;;;;;;;;;;5016170;28;25067;-70
2023/07/13 00:49:30;;;;;;;7.38;1.90;;;;;;;;;;5018240;28;25144;-71
2023/07/13 00:51:57;;;;;;;11.00;2.10;;;;;;;;;;5031102;28;25085;-72
2023/07/13 00:54:31;;;;;;;9.70;2.55;;;;;;;;;;5029086;28;25077;-72
2023/07/13 00:56:59;;;;;;;10.65;2.85;;;;;;;;;;5025127;28;25068;-71
2023/07/13 00:59:25;;;;;;;9.23;2.40;;;;;;;;;;5030273;28;25058;-71
2023/07/13 01:01:52;;;;;;;17.15;3.42;;;;;;;;;;5027507;28;25109;-71
2023/07/13 01:04:18;;;;;;;12.07;3.17;;;;;;;;;;5036050;28;25070;-72
2023/07/13 01:06:46;;;;;;;14.75;3.30;;;;;;;;;;5033469;28;25145;-72
2023/07/13 01:09:13;;;;;;;16.65;2.33;;;;;;;;;;5028226;28;25059;-71
2023/07/13 01:11:39;;;;;;;13.20;2.75;;;;;;;;;;5021847;28;25077;-70
2023/07/13 01:14:05;;;;;;;11.63;3.22;;;;;;;;;;5030148;28;25105;-70
2023/07/13 01:16:33;;;;;;;13.75;2.60;;;;;;;;;;5024998;28;25100;-72
2023/07/13 01:19:00;;;;;;;16.23;3.17;;;;;;;;;;5035591;28;25061;-71
2023/07/13 01:21:27;;;;;;;10.65;2.65;;;;;;;;;;5026890;28;25055;-71
2023/07/13 01:23:53;;;;;;;8.68;2.33;;;;;;;;;;5020733;28;25127;-70
2023/07/13 01:26:19;;;;;;;12.32;4.40;;;;;;;;;;5021963;28;25077;-72
2023/07/13 01:28:45;;;;;;;15.52;2.60;;;;;;;;;;5034790;28;25073;-71
2023/07/13 01:31:12;;;;;;;11.65;2.85;;;;;;;;;;5043850;28;25108;-72
2023/07/13 01:33:39;;;;;;;12.50;3.10;;;;;;;;;;5045934;28;25062;-72
2023/07/13 01:36:06;;;;;;;14.02;3.88;;;;;;;;;;5039056;28;25079;-72
2023/07/13 01:38:32;;;;;;;10.43;2.67;;;;;;;;;;5038789;28;25059;-72
2023/07/13 01:40:58;;;;;;;9.85;2.53;;;;;;;;;;5048398;28;25110;-72
2023/07/13 01:43:24;;;;;;;15.15;3.65;;;;;;;;;;5039255;28;25073;-71
2023/07/13 01:45:50;;;;;;;12.68;3.55;;;;;;;;;;5039602;28;25078;-72
2023/07/13 01:48:16;;;;;;;11.52;2.70;;;;;;;;;;5035600;28;25141;-73
2023/07/13 01:50:42;;;;;;;13.90;3.22;;;;;;;;;;5048045;28;25079;-73
2023/07/13 01:53:08;;;;;;;12.70;2.83;;;;;;;;;;5040452;28;25070;-71
2023/07/13 01:55:35;;;;;;;16.20;3.17;;;;;;;;;;5046649;28;25068;-72
2023/07/13 01:58:01;;;;;;;10.40;2.80;;;;;;;;;;5046841;28;25067;-71
2023/07/13 02:00:27;;;;;;;14.02;3.67;;;;;;;;;;5040006;28;25068;-71
2023/07/13 02:02:53;;;;;;;10.40;3.10;;;;;;;;;;5039582;28;25148;-73
2023/07/13 02:05:19;;;;;;;17.42;3.15;;;;;;;;;;5041108;28;25063;-72
2023/07/13 02:07:45;;;;;;;17.75;2.95;;;;;;;;;;5036417;28;25060;-71
2023/07/13 02:10:11;;;;;;;12.85;2.72;;;;;;;;;;5045169;28;25108;-71
2023/07/13 02:12:37;;;;;;;14.50;3.35;;;;;;;;;;5030298;28;25131;-72
2023/07/13 02:15:04;;;;;;;8.75;3.10;;;;;;;;;;5029292;28;25057;-71
2023/07/13 02:17:30;;;;;;;14.77;3.38;;;;;;;;;;5032067;28;25069;-71
2023/07/13 02:19:56;;;;;;;18.42;3.90;;;;;;;;;;5027114;28;25096;-71
2023/07/13 02:22:22;;;;;;;10.90;3.03;;;;;;;;;;5025006;28;25085;-71
2023/07/13 02:24:48;;;;;;;12.82;3.90;;;;;;;;;;5027134;28;25161;-72
2023/07/13 02:27:14;;;;;;;11.55;3.10;;;;;;;;;;5026240;28;25121;-70
2023/07/13 02:29:40;;;;;;;14.68;3.83;;;;;;;;;;5027209;28;25083;-72
2023/07/13 02:32:06;;;;;;;15.35;3.55;;;;;;;;;;5019542;28;25064;-70
2023/07/13 02:34:32;;;;;;;17.65;3.63;;;;;;;;;;5021582;28;25068;-72
2023/07/13 02:36:58;;;;;;;15.82;3.35;;;;;;;;;;5027198;28;25062;-71
2023/07/13 02:39:24;;;;;;;16.33;3.35;;;;;;;;;;5040678;28;25089;-72
2023/07/13 02:41:50;;;;;;;21.70;4.00;;;;;;;;;;5051653;28;25078;-71
2023/07/13 02:44:16;;;;;;;16.95;3.63;;;;;;;;;;5039421;28;25159;-71
2023/07/13 02:46:42;;;;;;;8.25;3.13;;;;;;;;;;5035423;28;25162;-72
2023/07/13 02:49:08;;;;;;;20.20;4.30;;;;;;;;;;5024148;28;25063;-74
2023/07/13 02:51:35;;;;;;;18.38;4.50;;;;;;;;;;5026312;28;25057;-73
2023/07/13 02:54:01;;;;;;;14.52;3.65;;;;;;;;;;5024581;28;25137;-71
2023/07/13 02:56:28;;;;;;;23.63;3.80;;;;;;;;;;5023463;28;25099;-73
2023/07/13 02:58:54;;;;;;;16.17;3.72;;;;;;;;;;5022363;28;25168;-73
2023/07/13 03:01:21;;;;;;;17.75;4.00;;;;;;;;;;5024750;28;25140;-73
2023/07/13 03:03:48;;;;;;;17.60;4.78;;;;;;;;;;5021195;28;25102;-71
2023/07/13 03:06:14;;;;;;;18.67;5.18;;;;;;;;;;5015010;28;25076;-73
2023/07/13 03:08:40;;;;;;;17.48;5.10;;;;;;;;;;5023938;28;25062;-73
2023/07/13 03:11:08;;;;;;;24.40;4.60;;;;;;;;;;5012036;28;25072;-72
2023/07/13 03:13:34;;;;;;;14.73;4.20;;;;;;;;;;5017921;28;25137;-72
2023/07/13 03:16:00;;;;;;;28.08;5.63;;;;;;;;;;5010599;28;25076;-72
2023/07/13 03:18:27;;;;;;;19.77;5.22;;;;;;;;;;5014081;28;25125;-73
2023/07/13 03:20:53;;;;;;;20.75;4.95;;;;;;;;;;5020329;28;25065;-72
2023/07/13 03:23:20;;;;;;;15.80;4.07;;;;;;;;;;5020574;28;25131;-72
2023/07/13 03:25:46;;;;;;;24.58;5.88;;;;;;;;;;5020136;28;25063;-71
2023/07/13 03:28:12;;;;;;;23.48;4.72;;;;;;;;;;5020022;28;25063;-72
2023/07/13 03:30:38;;;;;;;21.58;5.00;;;;;;;;;;5016190;28;25064;-73
2023/07/13 03:33:04;;;;;;;23.30;5.57;;;;;;;;;;5011079;28;25066;-72
2023/07/13 03:35:30;;;;;;;26.33;4.30;;;;;;;;;;5016601;28;25416;-72
2023/07/13 03:37:56;;;;;;;22.58;5.03;;;;;;;;;;5019618;28;25054;-72
2023/07/13 03:40:22;;;;;;;15.10;4.32;;;;;;;;;;5011502;28;25047;-73
2023/07/13 03:42:48;;;;;;;21.35;5.70;;;;;;;;;;5019926;28;25078;-74
2023/07/13 03:45:14;;;;;;;21.38;4.85;;;;;;;;;;5017587;28;25154;-71
2023/07/13 03:47:40;;;;;;;20.00;5.00;;;;;;;;;;5027629;28;25057;-73
2023/07/13 03:50:06;;;;;;;23.13;4.70;;;;;;;;;;5018764;28;25077;-72
2023/07/13 03:52:32;;;;;;;18.90;6.07;;;;;;;;;;5013268;28;25152;-73
2023/07/13 03:54:58;;;;;;;21.60;5.53;;;;;;;;;;5019997;28;25066;-73
2023/07/13 03:57:24;;;;;;;24.75;5.30;;;;;;;;;;5011611;28;25141;-74
2023/07/13 03:59:50;;;;;;;19.90;4.80;;;;;;;;;;5023891;28;25058;-72
2023/07/13 04:02:17;;;;;;;29.30;5.07;;;;;;;;;;5023265;28;25079;-73
2023/07/13 04:04:43;;;;;;;24.15;5.70;;;;;;;;;;5019659;28;25157;-71
2023/07/13 04:07:09;;;;;;;19.83;5.38;;;;;;;;;;5013107;28;25073;-74
2023/07/13 04:09:35;;;;;;;22.63;4.63;;;;;;;;;;5020748;28;25065;-72
2023/07/13 04:12:01;;;;;;;20.40;5.88;;;;;;;;;;5020439;28;25063;-72
2023/07/13 04:14:27;;;;;;;15.38;5.05;;;;;;;;;;5020498;28;25060;-72
2023/07/13 04:16:54;;;;;;;24.65;5.40;;;;;;;;;;5014665;28;25058;-73
2023/07/13 04:19:21;;;;;;;24.92;6.80;;;;;;;;;;5045686;28;25071;-73
2023/07/13 04:21:47;;;;;;;24.65;5.72;;;;;;;;;;5024254;28;25104;-73
2023/07/13 04:24:13;;;;;;;26.35;5.65;;;;;;;;;;5022728;28;25056;-73
2023/07/13 04:26:39;;;;;;;20.23;5.28;;;;;;;;;;5009510;28;25082;-73
2023/07/13 04:29:05;;;;;;;23.92;6.75;;;;;;;;;;5016618;28;25056;-72
2023/07/13 04:31:32;;;;;;;20.40;5.45;;;;;;;;;;5014321;28;25140;-73
2023/07/13 04:33:58;;;;;;;23.15;5.72;;;;;;;;;;5020374;28;25080;-73
2023/07/13 04:36:26;;;;;;;20.85;6.28;;;;;;;;;;5017054;28;25165;-72
2023/07/13 04:38:53;;;;;;;21.17;6.00;;;;;;;;;;5024426;28;25134;-71
2023/07/13 04:41:20;;;;;;;26.58;6.03;;;;;;;;;;5023101;28;25131;-73
2023/07/13 04:43:46;;;;;;;25.02;6.30;;;;;;;;;;5023554;28;25085;-72
2023/07/13 04:46:12;;;;;;;28.58;6.15;;;;;;;;;;5013795;28;25059;-71
2023/07/13 04:48:39;;;;;;;27.65;6.95;;;;;;;;;;5004918;28;25092;-73
2023/07/13 04:51:05;;;;;;;21.85;5.60;;;;;;;;;;5021702;28;25157;-72
2023/07/13 04:53:32;;;;;;;27.38;6.10;;;;;;;;;;5020975;28;25063;-72
2023/07/13 04:55:58;;;;;;;25.40;6.45;;;;;;;;;;5026742;28;25080;-72
2023/07/13 04:58:24;;;;;;;17.48;5.55;;;;;;;;;;5023235;28;25145;-71
2023/07/13 05:00:50;;;;;;;17.85;6.25;;;;;;;;;;5011672;28;25075;-72
2023/07/13 05:03:17;;;;;;;21.92;6.05;;;;;;;;;;5022543;28;25060;-71
2023/07/13 05:05:43;;;;;;;20.02;6.72;;;;;;;;;;5016515;28;25064;-71
2023/07/13 05:08:09;;;;;;;18.85;6.07;;;;;;;;;;5018619;28;25069;-71
2023/07/13 05:10:36;;;;;;;25.65;6.07;;;;;;;;;;5015992;28;25055;-70
2023/07/13 05:13:02;;;;;;;23.60;6.15;;;;;;;;;;5018447;28;25080;-74
2023/07/13 05:15:29;;;;;;;28.27;7.07;;;;;;;;;;5023783;28;25060;-72
2023/07/13 05:17:55;;;;;;;21.05;5.80;;;;;;;;;;5012637;28;25072;-74
2023/07/13 05:20:21;;;;;;;22.58;6.60;;;;;;;;;;5012965;28;25131;-75
2023/07/13 05:22:47;;;;;;;19.13;6.18;;;;;;;;;;5017864;28;25116;-72
2023/07/13 05:25:13;;;;;;;23.02;6.25;;;;;;;;;;5016234;28;25104;-74
2023/07/13 05:27:39;;;;;;;29.15;7.68;;;;;;;;;;5013515;28;25085;-73
2023/07/13 05:30:06;;;;;;;25.00;6.70;;;;;;;;;;5013165;28;25112;-75
2023/07/13 05:32:32;;;;;;;22.38;6.40;;;;;;;;;;5021637;28;25066;-73
2023/07/13 05:34:58;;;;;;;23.35;6.03;;;;;;;;;;5024534;28;25061;-74
2023/07/13 05:37:24;;;;;;;27.10;7.38;;;;;;;;;;5013691;28;25052;-73
2023/07/13 05:39:50;;;;;;;23.08;6.43;;;;;;;;;;5025130;28;25067;-73
2023/07/13 05:42:16;;;;;;;24.02;7.80;;;;;;;;;;5022261;28;25050;-72
2023/07/13 05:44:42;;;;;;;21.63;7.18;;;;;;;;;;5028323;28;25052;-73
2023/07/13 05:47:08;;;;;;;22.95;7.20;;;;;;;;;;5011800;28;25064;-71
2023/07/13 05:49:34;;;;;;;25.83;8.05;;;;;;;;;;5020332;28;25106;-72
2023/07/13 05:51:59;;;;;;;22.48;7.35;;;;;;;;;;5017550;28;25058;-72
2023/07/13 05:54:25;;;;;;;24.40;8.23;;;;;;;;;;5014642;28;25086;-74
2023/07/13 05:56:51;;;;;;;24.95;8.25;;;;;;;;;;5020988;28;25063;-72
2023/07/13 05:59:18;;;;;;;29.92;9.18;;;;;;;;;;5020912;28;25055;-71
2023/07/13 06:01:44;;;;;;;29.70;9.48;;;;;;;;;;5020830;28;25087;-73
2023/07/13 06:04:10;;;;;;;25.02;9.20;;;;;;;;;;5047738;28;25053;-71
2023/07/13 06:06:36;;;;;;;23.83;8.57;;;;;;;;;;5051636;28;25069;-73
2023/07/13 06:09:02;;;;;;;23.98;9.23;;;;;;;;;;5042046;28;25069;-72
2023/07/13 06:11:29;;;;;;;30.98;10.70;;;;;;;;;;5024443;28;25072;-72
2023/07/13 06:13:56;;;;;;;28.98;10.68;;;;;;;;;;5022527;28;25131;-71
2023/07/13 06:16:22;;;;;;;31.50;11.35;;;;;;;;;;5021124;28;25071;-73
2023/07/13 06:18:48;;;;;;;31.30;10.85;;;;;;;;;;5026685;28;25103;-72
2023/07/13 06:21:15;;;;;;;23.83;9.40;;;;;;;;;;5024929;28;25090;-72
2023/07/13 06:23:41;;;;;;;29.15;9.35;;;;;;;;;;5030701;28;25065;-73
2023/07/13 06:26:08;;;;;;;22.42;9.77;;;;;;;;;;5042132;28;25111;-72
2023/07/13 06:28:34;;;;;;;21.30;9.40;;;;;;;;;;5027115;28;25063;-72
2023/07/13 06:31:01;;;;;;;25.30;9.77;;;;;;;;;;5045476;28;25126;-71
2023/07/13 06:33:27;;;;;;;27.15;9.32;;;;;;;;;;5037774;28;25097;-72
2023/07/13 06:35:54;;;;;;;35.97;10.23;;;;;;;;;;5034237;28;25054;-72
2023/07/13 06:38:20;;;;;;;27.77;8.27;;;;;;;;;;5043161;28;25042;-74
2023/07/13 06:40:46;;;;;;;28.25;9.45;;;;;;;;;;5027838;28;25070;-72
2023/07/13 06:43:12;;;;;;;21.83;7.20;;;;;;;;;;5031512;28;25081;-72
2023/07/13 06:45:42;;;;;;;23.23;8.45;;;;;;;;;;5037486;28;25113;-71
2023/07/13 06:48:08;;;;;;;22.08;8.07;;;;;;;;;;5043861;28;25100;-74
2023/07/13 06:50:34;;;;;;;26.90;8.38;;;;;;;;;;5031995;28;25103;-72
2023/07/13 06:53:00;;;;;;;20.55;6.85;;;;;;;;;;5017190;28;25069;-71
2023/07/13 06:55:26;;;;;;;20.70;8.45;;;;;;;;;;5024409;28;25083;-72
2023/07/13 06:57:52;;;;;;;19.80;6.85;;;;;;;;;;5018318;28;25067;-72
2023/07/13 07:00:18;;;;;;;16.63;7.25;;;;;;;;;;5026803;28;25122;-72
2023/07/13 07:02:44;;;;;;;18.10;6.05;;;;;;;;;;5033776;28;25070;-71
2023/07/13 07:05:10;;;;;;;16.30;5.47;;;;;;;;;;5055469;28;25061;-73
2023/07/13 07:07:36;;;;;;;17.35;5.10;;;;;;;;;;5028923;28;25076;-72
2023/07/13 07:10:03;;;;;;;17.02;5.28;;;;;;;;;;5020708;28;25070;-73
2023/07/13 07:12:29;;;;;;;15.38;4.05;;;;;;;;;;5019724;28;25073;-73
2023/07/13 07:14:55;;;;;;;9.77;3.28;;;;;;;;;;5037253;28;25050;-74
2023/07/13 07:17:21;;;;;;;14.65;3.88;;;;;;;;;;5024660;28;25080;-77
2023/07/13 07:19:47;;;;;;;9.55;3.45;;;;;;;;;;5027600;28;25051;-75
2023/07/13 07:22:13;;;;;;;7.07;3.15;;;;;;;;;;5034579;28;25064;-72
2023/07/13 07:24:39;;;;;;;9.85;3.20;;;;;;;;;;5034932;28;25059;-74
2023/07/13 07:27:05;;;;;;;12.90;2.88;;;;;;;;;;5036136;28;25070;-73
2023/07/13 07:29:31;;;;;;;9.50;3.42;;;;;;;;;;5033579;28;25080;-74
2023/07/13 07:31:57;;;;;;;5.88;2.97;;;;;;;;;;5034658;28;25060;-74
2023/07/13 07:34:23;;;;;;;15.63;3.47;;;;;;;;;;5030509;28;25066;-74
2023/07/13 07:36:49;;;;;;;13.25;3.55;;;;;;;;;;5021060;28;25060;-72
2023/07/13 07:39:16;;;;;;;9.98;3.60;;;;;;;;;;5015903;28;25059;-72
2023/07/13 07:41:42;;;;;;;15.35;4.47;;;;;;;;;;5022477;28;25073;-72
2023/07/13 07:44:10;;;;;;;11.60;4.20;;;;;;;;;;5020235;28;25060;-74
2023/07/13 07:46:35;;;;;;;13.95;4.32;;;;;;;;;;5022141;28;25054;-73
2023/07/13 07:49:01;;;;;;;13.90;4.07;;;;;;;;;;5024122;28;25135;-75
2023/07/13 07:51:28;;;;;;;11.60;4.45;;;;;;;;;;5023460;28;25060;-72
2023/07/13 07:53:54;;;;;;;12.60;5.35;;;;;;;;;;5024555;28;25086;-72
2023/07/13 07:56:20;;;;;;;19.15;4.72;;;;;;;;;;5022608;28;25117;-73
2023/07/13 07:58:46;;;;;;;12.40;4.18;;;;;;;;;;5024804;28;25143;-72
2023/07/13 08:01:12;;;;;;;16.50;4.63;;;;;;;;;;5022216;28;25084;-72
2023/07/13 08:03:37;;;;;;;16.88;4.40;;;;;;;;;;5024761;28;25055;-76
2023/07/13 08:06:03;;;;;;;6.13;3.22;;;;;;;;;;5034050;28;25056;-78
2023/07/13 08:08:29;;;;;;;10.05;3.05;;;;;;;;;;5024545;28;25057;-72
2023/07/13 08:10:55;;;;;;;6.47;3.33;;;;;;;;;;5026174;28;25144;-72
2023/07/13 08:13:21;;;;;;;8.60;2.92;;;;;;;;;;5026906;28;25105;-73
2023/07/13 08:15:47;;;;;;;9.57;3.58;;;;;;;;;;5022048;28;25051;-73
2023/07/13 08:18:15;;;;;;;14.50;3.20;;;;;;;;;;5024270;28;25069;-72
2023/07/13 08:20:41;;;;;;;10.07;3.47;;;;;;;;;;5032787;28;25084;-72
2023/07/13 08:23:07;;;;;;;11.02;3.92;;;;;;;;;;5021858;28;25108;-71
2023/07/13 08:25:34;;;;;;;7.35;3.42;;;;;;;;;;5023603;28;25074;-72
2023/07/13 08:27:59;;;;;;;15.68;3.30;;;;;;;;;;5021493;28;25061;-72
2023/07/13 08:30:25;;;;;;;10.68;2.97;;;;;;;;;;5023170;28;25067;-74
2023/07/13 08:32:51;;;;;;;8.57;2.85;;;;;;;;;;5022162;28;25069;-73
2023/07/13 08:35:17;;;;;;;12.55;3.60;;;;;;;;;;5023125;28;25059;-71
2023/07/13 08:37:43;;;;;;;8.88;3.97;;;;;;;;;;5019533;28;25099;-71
2023/07/13 08:40:11;;;;;;;15.63;3.88;;;;;;;;;;5021596;28;25118;-72
2023/07/13 08:42:39;;;;;;;7.85;3.15;;;;;;;;;;5018420;28;25164;-72
2023/07/13 08:45:16;;;;;;;11.35;3.28;;;;;;;;;;5022149;28;25104;-73
2023/07/13 08:47:45;;;;;;;16.63;3.38;;;;;;;;;;5019726;28;25074;-72
2023/07/13 08:50:12;;;;;;;15.52;3.70;;;;;;;;;;5029831;28;25055;-72
2023/07/13 08:52:41;;;;;;;7.32;2.95;;;;;;;;;;5027701;28;25106;-73
2023/07/13 08:55:13;;;;;;;10.77;3.60;;;;;;;;;;5021733;28;25099;-74
2023/07/13 08:57:39;;;;;;;;;;;;;;;;;;5029605;28;25066;-71
2023/07/13 09:00:06;;;;;;;7.93;3.88;;;;;;;;;;5025563;28;25063;-72
2023/07/13 09:02:41;;;;;;;7.55;3.42;;;;;;;;;;5036451;28;25069;-72
2023/07/13 09:05:17;;;;;;;15.52;4.00;;;;;;;;;;5034453;28;25197;-72
2023/07/13 09:07:56;;;;;;;10.07;3.03;;;;;;;;;;5032636;28;25095;-74
2023/07/13 09:10:27;;;;;;;6.68;2.92;;;;;;;;;;5028029;28;25134;-73
2023/07/13 09:13:17;;;;;;;8.57;2.72;;;;;;;;;;5030922;28;25138;-72
2023/07/13 09:15:44;;;;;;;10.00;2.70;;;;;;;;;;5028279;28;25086;-73
2023/07/13 09:18:22;;;;;;;12.07;2.50;;;;;;;;;;5025945;28;25055;-72
2023/07/13 09:20:51;;;;;;;6.85;2.88;;;;;;;;;;5030678;28;25066;-73
2023/07/13 09:23:20;;;;;;;10.65;2.45;;;;;;;;;;5036153;28;25095;-74
2023/07/13 09:25:50;;;;;;;9.15;2.95;;;;;;;;;;5042137;28;25056;-74
2023/07/13 09:28:22;;;;;;;8.27;2.40;;;;;;;;;;5029620;28;25072;-74
2023/07/13 09:30:48;;;;;;;;;;;;;;;;;;5030021;28;25051;-74
2023/07/13 09:33:15;;;;;;;7.95;2.70;;;;;;;;;;5028665;28;24075;-71
2023/07/13 09:35:41;;;;;;;9.35;2.40;;;;;;;;;;5037219;28;25075;-72
2023/07/13 09:38:13;;;;;;;3.92;2.35;;;;;;;;;;5019866;28;25159;-73
2023/07/13 09:40:54;;;;;;;6.90;2.58;;;;;;;;;;5028640;28;25069;-75
2023/07/13 09:43:21;;;;;;;7.78;2.38;;;;;;;;;;5025915;28;25113;-75
2023/07/13 09:45:47;;;;;;;4.05;2.03;;;;;;;;;;5027886;28;25063;-73
2023/07/13 09:48:15;;;;;;;3.80;2.25;;;;;;;;;;5018451;28;25059;-74
2023/07/13 09:50:42;;;;;;;5.07;1.80;;;;;;;;;;5030426;28;25063;-74
2023/07/13 09:53:15;;;;;;;6.13;2.13;;;;;;;;;;5034861;28;25161;-72
2023/07/13 09:55:43;;;;;;;2.83;1.50;;;;;;;;;;5024968;28;25079;-71
2023/07/13 09:58:17;;;;;;;5.07;1.90;;;;;;;;;;5034184;28;25127;-74
2023/07/13 10:00:44;;;;;;;2.88;1.70;;;;;;;;;;5027636;28;25086;-73
2023/07/13 10:03:21;;;;;;;11.45;1.83;;;;;;;;;;5020334;28;25073;-73
2023/07/13 10:05:50;;;;;;;10.27;2.53;;;;;;;;;;5028849;28;25247;-73
2023/07/13 10:08:30;;;;;;;7.03;2.15;;;;;;;;;;5039165;28;25073;-71
2023/07/13 10:11:15;;;;;;;5.72;2.08;;;;;;;;;;5031854;28;25066;-75
2023/07/13 10:13:43;;;;;;;5.85;2.10;;;;;;;;;;5023751;28;25070;-73
2023/07/13 10:16:09;;;;;;;7.18;1.98;;;;;;;;;;5020184;28;25077;-73
2023/07/13 10:18:39;;;;;;;3.67;1.90;;;;;;;;;;5019625;28;25093;-73
2023/07/13 10:21:22;;;;;;;6.30;1.83;;;;;;;;;;5021027;28;25078;-74
2023/07/13 10:23:51;;;;;;;4.40;1.90;;;;;;;;;;5024463;28;25092;-74
2023/07/13 10:26:27;;;;;;;10.48;1.85;;;;;;;;;;5017498;28;25080;-73
2023/07/13 10:28:56;;;;;;;5.97;2.10;;;;;;;;;;5020939;28;25054;-71
2023/07/13 10:31:23;;;;;;;5.70;2.25;;;;;;;;;;5030702;28;25096;-73
2023/07/13 10:33:49;;;;;;;7.03;1.70;;;;;;;;;;5029450;28;25074;-72
2023/07/13 10:36:24;;;;;;;4.95;1.90;;;;;;;;;;5024329;28;25137;-75
2023/07/13 10:38:51;;;;;;;8.88;2.42;;;;;;;;;;5022584;28;25081;-74
2023/07/13 10:41:19;;;;;;;4.15;2.00;;;;;;;;;;5038379;28;25064;-72
2023/07/13 10:43:47;;;;;;;3.53;1.60;;;;;;;;;;5024460;28;25107;-72
2023/07/13 10:46:17;;;;;;;4.28;1.65;;;;;;;;;;5018588;28;25027;-74
2023/07/13 10:48:44;;;;;;;3.78;2.22;;;;;;;;;;5027786;28;25071;-75
2023/07/13 10:51:11;;;;;;;5.30;2.08;;;;;;;;;;5029503;28;25053;-74
2023/07/13 10:53:39;;;;;;;4.40;1.77;;;;;;;;;;5028591;28;25082;-76
2023/07/13 10:56:11;;;;;;;5.95;2.15;;;;;;;;;;5027685;28;25073;-77
2023/07/13 10:58:38;;;;;;;4.32;1.80;;;;;;;;;;5032770;28;25051;-72
2023/07/13 11:01:08;;;;;;;7.50;1.92;;;;;;;;;;5029970;28;25153;-74
2023/07/13 11:03:36;;;;;;;3.33;1.67;;;;;;;;;;5028319;28;25159;-74
2023/07/13 11:06:08;;;;;;;2.63;1.35;;;;;;;;;;5028383;28;25077;-76
2023/07/13 11:08:38;;;;;;;7.22;1.80;;;;;;;;;;5026878;28;25064;-74
2023/07/13 11:11:25;;;;;;;2.53;1.50;;;;;;;;;;5022838;28;25063;-74
2023/07/13 11:13:51;;;;;;;4.65;1.48;;;;;;;;;;5027104;28;25066;-72
2023/07/13 11:16:22;;;;;;;7.53;1.67;;;;;;;;;;5026334;28;25055;-74
2023/07/13 11:18:52;;;;;;;2.50;1.38;;;;;;;;;;5017062;28;25157;-72
2023/07/13 11:21:18;;;;;;;3.03;1.35;;;;;;;;;;5023555;28;25055;-75
2023/07/13 11:23:45;;;;;;;3.35;1.65;;;;;;;;;;5026007;28;25073;-75
2023/07/13 11:26:30;;;;;;;3.95;2.30;;;;;;;;;;5028947;28;25085;-73
2023/07/13 11:28:56;;;;;;;6.88;1.50;;;;;;;;;;5015257;28;25080;-75
2023/07/13 11:31:22;;;;;;;2.72;1.30;;;;;;;;;;5016131;28;25072;-73
2023/07/13 11:33:51;;;;;;;7.22;2.13;;;;;;;;;;5024556;28;25058;-75
2023/07/13 11:36:21;;;;;;;3.35;1.27;;;;;;;;;;5027125;28;25062;-75
2023/07/13 11:38:51;;;;;;;6.43;1.70;;;;;;;;;;5028249;28;25140;-74
2023/07/13 11:41:19;;;;;;;3.80;1.30;;;;;;;;;;5032188;28;25055;-72
2023/07/13 11:43:45;;;;;;;5.72;1.40;;;;;;;;;;5032637;28;25066;-73
2023/07/13 11:46:14;;;;;;;2.30;1.20;;;;;;;;;;5032294;28;25059;-76
2023/07/13 11:48:41;;;;;;;3.70;1.35;;;;;;;;;;5039003;28;25159;-74
2023/07/13 11:51:07;;;;;;;4.15;1.38;;;;;;;;;;5037808;28;25152;-73
2023/07/13 11:53:45;;;;;;;7.43;1.15;;;;;;;;;;5038120;28;25138;-74
2023/07/13 11:56:11;;;;;;;4.47;1.40;;;;;;;;;;5039488;28;25062;-76
2023/07/13 11:58:38;;;;;;;2.63;1.40;;;;;;;;;;5023336;28;25048;-74
2023/07/13 12:01:05;;;;;;;4.03;1.52;;;;;;;;;;5033617;28;25055;-72
2023/07/13 12:03:32;;;;;;;2.03;1.27;;;;;;;;;;5043998;28;25100;-73
2023/07/13 12:06:00;;;;;;;2.58;1.38;;;;;;;;;;5025522;28;25061;-75
2023/07/13 12:08:26;;;;;;;4.57;1.38;;;;;;;;;;5038500;28;25174;-73
2023/07/13 12:11:04;;;;;;;4.22;1.17;;;;;;;;;;5033250;28;25089;-73
2023/07/13 12:13:35;;;;;;;2.05;1.00;;;;;;;;;;5021841;28;25065;-75
2023/07/13 12:16:01;;;;;;;2.15;1.10;;;;;;;;;;5029441;28;25070;-74
2023/07/13 12:18:31;;;;;;;2.25;1.20;;;;;;;;;;5041954;28;25063;-74
2023/07/13 12:20:59;;;;;;;2.53;1.20;;;;;;;;;;5019071;28;25078;-73
2023/07/13 12:23:25;;;;;;;3.78;1.23;;;;;;;;;;5035188;28;25084;-75
2023/07/13 12:25:51;;;;;;;3.75;1.67;;;;;;;;;;5028734;28;25102;-75
2023/07/13 12:28:30;;;;;;;4.57;1.50;;;;;;;;;;5048283;28;25071;-78
2023/07/13 12:31:04;;;;;;;4.10;1.35;;;;;;;;;;5032619;28;25113;-76
2023/07/13 12:33:31;;;;;;;3.00;1.20;;;;;;;;;;5036836;28;25102;-76
2023/07/13 12:35:57;;;;;;;3.15;1.33;;;;;;;;;;5042634;28;25132;-75
2023/07/13 12:38:25;;;;;;;1.88;1.10;;;;;;;;;;5019218;28;25070;-75
2023/07/13 12:40:52;;;;;;;1.52;1.00;;;;;;;;;;5028307;28;25082;-77
2023/07/13 12:43:20;;;;;;;4.32;1.25;;;;;;;;;;5033468;28;25141;-76
2023/07/13 12:45:56;;;;;;;5.55;1.40;;;;;;;;;;5030194;28;25054;-73
2023/07/13 12:48:23;;;;;;;3.35;1.27;;;;;;;;;;5027897;28;25074;-75
2023/07/13 12:50:50;;;;;;;3.00;1.23;;;;;;;;;;5021828;28;25074;-76
2023/07/13 12:53:19;;;;;;;1.73;1.15;;;;;;;;;;5018655;28;25137;-74
2023/07/13 12:55:59;;;;;;;2.47;1.52;;;;;;;;;;5014600;28;25110;-73
2023/07/13 12:58:28;;;;;;;3.22;1.20;;;;;;;;;;5038658;28;25117;-77
2023/07/13 13:00:54;;;;;;;1.70;1.27;;;;;;;;;;5042033;28;25080;-76
2023/07/13 13:03:28;;;;;;;3.78;1.52;;;;;;;;;;5016406;28;25058;-76
2023/07/13 13:05:59;;;;;;;2.78;1.10;;;;;;;;;;5020888;28;25168;-75
2023/07/13 13:08:25;;;;;;;3.13;1.40;;;;;;;;;;5026976;28;25091;-76
2023/07/13 13:10:51;;;;;;;5.30;1.50;;;;;;;;;;5023928;28;25092;-74
2023/07/13 13:13:17;;;;;;;2.67;1.35;;;;;;;;;;5025669;28;25149;-76
2023/07/13 13:15:43;;;;;;;3.97;1.30;;;;;;;;;;5023553;28;25068;-72
2023/07/13 13:18:15;;;;;;;3.55;2.00;;;;;;;;;;5017441;28;25076;-77
2023/07/13 13:20:41;;;;;;;4.22;1.55;;;;;;;;;;5016057;28;25154;-76
2023/07/13 13:23:12;;;;;;;6.38;1.60;;;;;;;;;;5019612;28;25094;-74
2023/07/13 13:25:38;;;;;;;4.25;1.52;;;;;;;;;;5025913;28;25100;-73
2023/07/13 13:28:04;;;;;;;5.53;1.38;;;;;;;;;;5026007;28;25089;-74
2023/07/13 13:30:30;;;;;;;4.03;1.42;;;;;;;;;;5026330;28;25075;-74
2023/07/13 13:32:56;;;;;;;7.50;1.77;;;;;;;;;;5034055;28;25046;-75
2023/07/13 13:35:22;;;;;;;5.57;1.70;;;;;;;;;;5030640;28;25106;-74
2023/07/13 13:37:50;;;;;;;5.13;1.77;;;;;;;;;;5027929;28;25063;-72
2023/07/13 13:40:17;;;;;;;2.75;1.50;;;;;;;;;;5031868;28;25063;-73
2023/07/13 13:42:43;;;;;;;2.88;1.40;;;;;;;;;;5037125;28;25104;-74
2023/07/13 13:45:12;;;;;;;6.60;1.83;;;;;;;;;;5032813;28;25103;-73
2023/07/13 13:47:40;;;;;;;3.72;1.50;;;;;;;;;;5042019;28;25053;-73
2023/07/13 13:50:16;;;;;;;5.05;1.67;;;;;;;;;;5032252;28;25044;-75
2023/07/13 13:52:42;;;;;;;3.22;1.30;;;;;;;;;;5030312;28;25058;-74
2023/07/13 13:55:24;;;;;;;3.92;1.33;;;;;;;;;;5047231;28;25074;-74
2023/07/13 13:57:50;;;;;;;2.10;1.13;;;;;;;;;;5043594;28;25080;-74
2023/07/13 14:00:17;;;;;;;2.15;1.20;;;;;;;;;;5042857;28;25073;-75
2023/07/13 14:02:52;;;;;;;5.10;1.63;;;;;;;;;;5030941;28;25113;-75
2023/07/13 14:05:22;;;;;;;4.35;1.40;;;;;;;;;;5027390;28;25072;-73
2023/07/13 14:07:48;;;;;;;5.32;1.92;;;;;;;;;;5033289;28;25057;-72
2023/07/13 14:10:16;;;;;;;2.15;1.17;;;;;;;;;;5029868;28;25073;-75
2023/07/13 14:12:44;;;;;;;3.65;1.45;;;;;;;;;;5041433;28;25161;-72
2023/07/13 14:15:17;;;;;;;3.85;1.15;;;;;;;;;;5050491;28;25048;-72
2023/07/13 14:17:43;;;;;;;5.82;1.50;;;;;;;;;;5050208;28;25096;-72
2023/07/13 14:20:13;;;;;;;3.35;1.50;;;;;;;;;;5032159;28;25127;-72
2023/07/13 14:22:39;;;;;;;2.65;1.10;;;;;;;;;;5031546;28;25072;-74
2023/07/13 14:25:05;;;;;;;1.33;1.15;;;;;;;;;;5033681;28;25062;-75
2023/07/13 14:27:31;;;;;;;3.78;1.30;;;;;;;;;;5032363;28;25097;-73
2023/07/13 14:29:57;;;;;;;6.03;1.30;;;;;;;;;;5030267;28;25183;-75
2023/07/13 14:32:23;;;;;;;5.07;1.60;;;;;;;;;;5031577;28;25054;-73
2023/07/13 14:34:49;;;;;;;5.65;1.35;;;;;;;;;;5032199;28;25121;-75
2023/07/13 14:37:16;;;;;;;2.08;1.30;;;;;;;;;;5033391;28;25057;-75